Time;durP1;ratioP1;P1;durP2;ratioP2;P2;SDS_P1;SDS_P2;PMS_P1;PMS_P2;Temp;Humidity;BMP_temperature;BMP_pressure;BME280_temperature;BME280_humidity;BME280_pressure;Samples;Min_cycle;Max_cycle;Signal;HPM_P1;HPM_P2
2024/04/17 00:01:40;;;;;;;11.70;2.70;;;6.30;95.00;;;;;;5383923;26;20451;-82
2024/04/17 00:04:06;;;;;;;10.33;3.20;;;6.20;95.10;;;;;;5381688;26;19996;-82
2024/04/17 00:06:32;;;;;;;9.37;1.93;;;6.20;95.20;;;;;;5381322;26;20011;-81
2024/04/17 00:08:57;;;;;;;7.63;1.63;;;6.30;95.30;;;;;;5381210;26;20000;-82
2024/04/17 00:11:23;;;;;;;10.87;2.30;;;6.20;95.40;;;;;;5383350;26;20456;-82
2024/04/17 00:13:49;;;;;;;8.53;2.50;;;6.20;95.50;;;;;;5381313;26;19996;-82
2024/04/17 00:16:15;;;;;;;9.10;1.67;;;6.20;95.60;;;;;;5383363;26;20023;-82
2024/04/17 00:18:40;;;;;;;9.17;1.37;;;6.20;95.80;;;;;;5383434;26;20012;-82
2024/04/17 00:21:06;;;;;;;10.57;1.90;;;6.20;95.80;;;;;;5383015;26;20004;-82
2024/04/17 00:23:31;;;;;;;9.20;2.10;;;6.20;95.90;;;;;;5383410;26;20008;-80
2024/04/17 00:25:57;;;;;;;4.73;2.00;;;6.10;96.00;;;;;;5383075;26;20019;-81
2024/04/17 00:28:24;;;;;;;8.07;1.43;;;6.10;96.10;;;;;;5381259;26;20029;-80
2024/04/17 00:30:50;;;;;;;7.57;1.50;;;6.10;96.20;;;;;;5382966;26;20004;-80
2024/04/17 00:33:16;;;;;;;10.23;1.70;;;6.10;96.30;;;;;;5380956;26;20004;-80
2024/04/17 00:35:41;;;;;;;9.13;1.67;;;6.00;96.40;;;;;;5381090;26;20012;-80
2024/04/17 00:38:07;;;;;;;7.63;2.50;;;6.00;96.50;;;;;;5381162;26;20004;-81
2024/04/17 00:40:33;;;;;;;12.97;2.30;;;6.00;96.70;;;;;;5382939;26;20016;-80
2024/04/17 00:43:02;;;;;;;9.57;1.77;;;6.00;96.80;;;;;;5382895;26;20418;-80
2024/04/17 00:45:32;;;;;;;8.10;1.90;;;6.00;96.90;;;;;;5382929;26;20085;-81
2024/04/17 00:47:58;;;;;;;9.70;1.60;;;6.00;97.00;;;;;;5383124;26;20000;-81
2024/04/17 00:50:25;;;;;;;8.07;1.70;;;6.00;97.10;;;;;;5382801;26;20004;-80
2024/04/17 00:52:52;;;;;;;14.47;1.87;;;5.90;97.10;;;;;;5380958;26;20008;-81
2024/04/17 00:55:18;;;;;;;11.00;1.70;;;5.90;97.30;;;;;;5382825;26;20082;-81
2024/04/17 00:57:44;;;;;;;8.97;1.60;;;5.90;97.50;;;;;;5382614;26;20059;-80
2024/04/17 01:00:11;;;;;;;8.83;1.93;;;5.90;97.60;;;;;;5382711;26;20008;-80
2024/04/17 01:02:36;;;;;;;7.63;1.60;;;5.80;97.70;;;;;;5382722;26;20012;-80
2024/04/17 01:05:02;;;;;;;10.27;1.67;;;5.80;98.00;;;;;;5380600;26;20336;-80
2024/04/17 01:07:28;;;;;;;6.40;1.63;;;5.80;98.00;;;;;;5379996;26;20010;-80
2024/04/17 01:09:54;;;;;;;11.50;2.40;;;5.80;98.10;;;;;;5380544;26;20015;-80
2024/04/17 01:12:20;;;;;;;4.70;1.50;;;5.80;98.20;;;;;;5382704;26;20329;-80
2024/04/17 01:14:46;;;;;;;7.10;1.53;;;5.80;98.30;;;;;;5380860;26;20082;-81
2024/04/17 01:17:12;;;;;;;6.37;1.50;;;5.80;98.50;;;;;;5380230;26;20011;-80
2024/04/17 01:19:39;;;;;;;7.73;1.50;;;5.80;98.60;;;;;;5382172;26;20011;-80
2024/04/17 01:22:05;;;;;;;8.80;1.63;;;5.80;98.70;;;;;;5382357;26;20020;-80
2024/04/17 01:24:30;;;;;;;14.47;2.33;;;5.80;98.80;;;;;;5382033;26;20083;-80
2024/04/17 01:26:56;;;;;;;8.87;1.60;;;5.80;98.90;;;;;;5381632;26;20475;-80
2024/04/17 01:29:22;;;;;;;10.47;2.43;;;5.80;99.00;;;;;;5380568;26;20015;-80
2024/04/17 01:31:47;;;;;;;15.97;2.50;;;5.80;99.10;;;;;;5380361;26;20012;-80
2024/04/17 01:34:13;;;;;;;7.77;1.40;;;5.80;99.20;;;;;;5382222;26;20074;-81
2024/04/17 01:36:38;;;;;;;6.93;2.00;;;5.80;99.30;;;;;;5380410;26;20012;-80
2024/04/17 01:39:04;;;;;;;4.27;1.40;;;5.80;99.40;;;;;;5381575;26;20012;-82
2024/04/17 01:41:30;;;;;;;10.10;2.40;;;5.80;99.50;;;;;;5382064;26;20444;-82
2024/04/17 01:43:56;;;;;;;13.43;1.93;;;5.70;99.60;;;;;;5382076;26;20011;-82
2024/04/17 01:46:22;;;;;;;12.53;2.20;;;5.70;99.70;;;;;;5381828;26;20004;-81
2024/04/17 01:48:48;;;;;;;8.53;1.50;;;5.70;99.90;;;;;;5381989;26;20011;-83
2024/04/17 01:51:13;;;;;;;9.23;1.83;;;5.70;99.90;;;;;;5379970;26;20011;-83
2024/04/17 01:53:39;;;;;;;4.83;1.37;;;5.70;99.90;;;;;;5379865;26;20028;-83
2024/04/17 01:56:05;;;;;;;9.83;1.90;;;5.70;99.90;;;;;;5382280;26;20015;-82
2024/04/17 01:58:30;;;;;;;9.23;1.90;;;5.70;99.90;;;;;;5381820;26;20004;-83
2024/04/17 02:00:56;;;;;;;10.47;1.70;;;5.70;99.90;;;;;;5381697;26;20004;-81
2024/04/17 02:03:22;;;;;;;7.53;2.13;;;5.60;99.90;;;;;;5382250;26;20004;-82
2024/04/17 02:05:47;;;;;;;7.70;1.80;;;5.60;99.90;;;;;;5381848;26;20004;-82
2024/04/17 02:08:13;;;;;;;7.20;1.80;;;5.60;99.90;;;;;;5379272;26;20037;-83
2024/04/17 02:10:39;;;;;;;5.97;1.80;;;5.60;99.90;;;;;;5379567;26;20011;-82
2024/04/17 02:13:04;;;;;;;10.27;2.53;;;5.60;99.90;;;;;;5381652;26;20047;-83
2024/04/17 02:15:33;;;;;;;12.50;2.13;;;5.60;99.90;;;;;;5379477;26;20090;-82
2024/04/17 02:17:59;;;;;;;10.77;1.63;;;5.60;99.90;;;;;;5381635;26;20000;-82
2024/04/17 02:20:24;;;;;;;7.87;2.07;;;5.60;99.90;;;;;;5381346;26;20000;-82
2024/04/17 02:22:50;;;;;;;7.63;1.77;;;5.60;99.90;;;;;;5378946;26;20008;-84
2024/04/17 02:25:16;;;;;;;9.70;1.90;;;5.60;99.90;;;;;;5381311;26;20015;-82
2024/04/17 02:27:42;;;;;;;9.40;1.70;;;5.60;99.90;;;;;;5381384;26;20004;-82
2024/04/17 02:30:08;;;;;;;4.00;1.50;;;5.60;99.90;;;;;;5379015;26;20000;-83
2024/04/17 02:32:34;;;;;;;9.17;1.60;;;5.60;99.90;;;;;;5381453;26;20398;-82
2024/04/17 02:34:59;;;;;;;10.30;1.77;;;5.70;99.90;;;;;;5379465;26;20005;-82
2024/04/17 02:37:25;;;;;;;10.80;1.73;;;5.70;99.90;;;;;;5381023;26;20004;-82
2024/04/17 02:39:51;;;;;;;12.40;2.60;;;5.70;99.90;;;;;;5380425;26;20001;-82
2024/04/17 02:42:16;;;;;;;7.53;1.90;;;5.70;99.90;;;;;;5382737;26;20011;-82
2024/04/17 02:44:42;;;;;;;9.40;2.03;;;5.70;99.90;;;;;;5382379;26;20106;-81
2024/04/17 02:47:07;;;;;;;6.53;1.27;;;5.70;99.90;;;;;;5382784;26;20016;-82
2024/04/17 02:49:33;;;;;;;9.13;1.87;;;5.70;99.90;;;;;;5384503;26;20020;-82
2024/04/17 02:51:59;;;;;;;8.97;1.60;;;5.80;99.90;;;;;;5384568;26;20010;-82
2024/04/17 02:54:24;;;;;;;7.87;1.37;;;5.80;99.90;;;;;;5382837;26;20468;-83
2024/04/17 02:56:50;;;;;;;7.97;1.73;;;5.80;99.90;;;;;;5384429;26;20019;-82
2024/04/17 02:59:16;;;;;;;7.30;1.47;;;5.90;99.90;;;;;;5382500;26;20011;-82
2024/04/17 03:01:41;;;;;;;9.70;2.00;;;5.90;99.90;;;;;;5382533;26;20015;-84
2024/04/17 03:04:07;;;;;;;8.40;1.63;;;5.90;99.90;;;;;;5382671;26;19997;-83
2024/04/17 03:06:33;;;;;;;8.97;1.50;;;5.90;99.90;;;;;;5384127;26;20016;-84
2024/04/17 03:08:59;;;;;;;7.77;2.07;;;6.00;99.90;;;;;;5381842;26;20000;-84
2024/04/17 03:11:24;;;;;;;8.00;1.80;;;6.00;99.90;;;;;;5382539;26;20474;-83
2024/04/17 03:13:50;;;;;;;9.30;1.90;;;6.00;99.90;;;;;;5382387;26;19996;-79
2024/04/17 03:16:16;;;;;;;10.77;1.83;;;6.00;99.90;;;;;;5382074;26;20049;-81
2024/04/17 03:18:42;;;;;;;10.50;1.67;;;6.00;99.90;;;;;;5383931;26;20379;-81
2024/04/17 03:21:07;;;;;;;7.90;1.90;;;6.10;99.90;;;;;;5382114;26;20397;-81
2024/04/17 03:23:33;;;;;;;7.83;1.77;;;6.10;99.90;;;;;;5384109;26;20004;-81
2024/04/17 03:26:00;;;;;;;6.17;1.60;;;6.10;99.90;;;;;;5382244;26;20024;-82
2024/04/17 03:28:26;;;;;;;9.87;1.63;;;6.00;99.90;;;;;;5383838;26;20078;-81
2024/04/17 03:30:52;;;;;;;6.00;1.40;;;6.20;99.90;;;;;;5383795;26;20001;-81
2024/04/17 03:33:18;;;;;;;10.17;1.90;;;6.10;99.90;;;;;;5382165;26;20000;-84
2024/04/17 03:35:55;;;;;;;10.00;2.23;;;6.20;99.90;;;;;;5383614;26;20000;-84
2024/04/17 03:38:20;;;;;;;6.77;1.83;;;6.20;99.90;;;;;;5383984;26;20019;-83
2024/04/17 03:40:46;;;;;;;9.57;1.60;;;6.20;99.90;;;;;;5381965;26;20012;-84
2024/04/17 03:43:12;;;;;;;7.70;1.83;;;6.20;99.90;;;;;;5381920;26;19996;-82
2024/04/17 03:45:37;;;;;;;9.60;1.60;;;6.30;99.90;;;;;;5383846;26;20533;-83
2024/04/17 03:48:03;;;;;;;7.57;1.60;;;6.30;99.90;;;;;;5383666;26;20020;-83
2024/04/17 03:50:28;;;;;;;5.93;1.73;;;6.40;99.90;;;;;;5380826;26;20012;-83
2024/04/17 03:52:54;;;;;;;3.67;1.20;;;6.40;99.90;;;;;;5381567;26;20438;-77
2024/04/17 03:55:19;;;;;;;5.70;1.27;;;6.30;99.90;;;;;;5384011;26;20019;-76
2024/04/17 03:57:45;;;;;;;8.00;1.03;;;6.40;99.90;;;;;;5381564;26;20005;-77
2024/04/17 04:00:11;;;;;;;5.40;1.20;;;6.50;99.90;;;;;;5381516;26;20495;-77
2024/04/17 04:02:37;;;;;;;3.50;1.00;;;6.50;99.90;;;;;;5383493;26;20310;-77
2024/04/17 04:05:02;;;;;;;5.30;1.03;;;6.50;99.90;;;;;;5381401;26;20088;-77
2024/04/17 04:07:28;;;;;;;3.87;0.90;;;6.50;99.90;;;;;;5381148;26;20529;-76
2024/04/17 04:09:53;;;;;;;4.17;0.90;;;6.60;99.90;;;;;;5383469;26;20004;-77
2024/04/17 04:12:19;;;;;;;6.00;1.10;;;6.60;99.90;;;;;;5381368;26;20012;-76
2024/04/17 04:14:45;;;;;;;5.10;1.20;;;6.60;99.90;;;;;;5381433;26;20340;-77
2024/04/17 04:17:11;;;;;;;3.83;1.00;;;6.60;99.90;;;;;;5381388;26;20019;-76
2024/04/17 04:19:37;;;;;;;5.83;1.23;;;6.70;99.90;;;;;;5380835;26;20013;-78
2024/04/17 04:22:02;;;;;;;5.90;1.50;;;6.70;99.90;;;;;;5383174;26;20019;-78
2024/04/17 04:24:28;;;;;;;2.10;0.90;;;6.70;99.90;;;;;;5381199;26;20000;-78
2024/04/17 04:26:53;;;;;;;3.87;0.97;;;6.70;99.90;;;;;;5381188;26;20000;-78
2024/04/17 04:29:19;;;;;;;4.90;1.53;;;6.70;99.90;;;;;;5383244;26;20000;-78
2024/04/17 04:31:45;;;;;;;3.27;0.90;;;6.70;99.90;;;;;;5380937;26;20351;-78
2024/04/17 04:34:10;;;;;;;4.43;1.17;;;6.80;99.90;;;;;;5381294;26;20041;-78
2024/04/17 04:36:36;;;;;;;4.30;1.13;;;6.80;99.90;;;;;;5383055;26;20328;-77
2024/04/17 04:39:02;;;;;;;7.00;1.13;;;6.80;99.90;;;;;;5383184;26;20004;-79
2024/04/17 04:41:28;;;;;;;5.27;1.40;;;6.80;99.90;;;;;;5380905;26;20530;-78
2024/04/17 04:43:54;;;;;;;3.27;1.30;;;6.90;99.90;;;;;;5382939;26;20004;-78
2024/04/17 04:46:19;;;;;;;6.00;1.20;;;6.80;99.90;;;;;;5382960;26;20012;-78
2024/04/17 04:48:45;;;;;;;3.90;1.53;;;6.80;99.90;;;;;;5382638;26;20019;-76
2024/04/17 04:51:10;;;;;;;7.30;1.67;;;6.70;99.90;;;;;;5383061;26;20422;-76
2024/04/17 04:53:36;;;;;;;6.57;1.77;;;6.80;99.90;;;;;;5380836;26;20008;-77
2024/04/17 04:56:03;;;;;;;3.23;1.27;;;6.70;99.90;;;;;;5382592;26;20305;-77
2024/04/17 04:58:29;;;;;;;5.60;1.37;;;6.70;99.90;;;;;;5380808;26;20070;-77
2024/04/17 05:00:55;;;;;;;6.67;2.00;;;6.70;99.90;;;;;;5382789;26;20011;-77
2024/04/17 05:03:21;;;;;;;4.47;1.40;;;6.70;99.90;;;;;;5381301;26;20011;-77
2024/04/17 05:05:47;;;;;;;4.67;1.73;;;6.80;99.90;;;;;;5382562;26;20036;-82
2024/04/17 05:08:13;;;;;;;5.93;1.60;;;6.70;99.90;;;;;;5380324;26;20004;-84
2024/04/17 05:10:39;;;;;;;5.70;1.67;;;6.80;99.90;;;;;;5382816;26;20000;-81
2024/04/17 05:13:05;;;;;;;6.20;1.67;;;6.80;99.90;;;;;;5380908;26;20470;-84
2024/04/17 05:15:30;;;;;;;5.17;1.60;;;6.80;99.90;;;;;;5382613;26;20461;-84
2024/04/17 05:17:56;;;;;;;7.50;1.70;;;6.80;99.90;;;;;;5380505;26;20026;-82
2024/04/17 05:20:22;;;;;;;9.87;1.90;;;6.80;99.90;;;;;;5380695;26;20077;-83
2024/04/17 05:22:48;;;;;;;7.17;1.97;;;6.90;99.90;;;;;;5382412;26;20000;-83
2024/04/17 05:25:15;;;;;;;7.63;1.77;;;6.90;99.90;;;;;;5382328;26;20000;-84
2024/04/17 05:27:41;;;;;;;6.03;1.80;;;6.90;99.90;;;;;;5358958;26;20087;-84
2024/04/17 05:30:08;;;;;;;7.37;1.97;;;6.90;99.90;;;;;;5320275;26;20001;-85
2024/04/17 05:32:34;;;;;;;6.87;1.97;;;6.90;99.90;;;;;;5381648;26;19992;-84
2024/04/17 05:35:00;;;;;;;4.63;1.80;;;7.00;99.90;;;;;;5382351;26;20007;-84
2024/04/17 05:37:26;;;;;;;8.93;2.00;;;7.00;99.90;;;;;;5379643;26;20008;-85
2024/04/17 05:39:51;;;;;;;4.80;1.13;;;7.10;99.90;;;;;;5350390;26;20000;-84
2024/04/17 05:42:17;;;;;;;5.73;1.67;;;7.10;99.90;;;;;;5350283;26;20008;-84
2024/04/17 05:44:43;;;;;;;2.57;1.13;;;7.10;99.90;;;;;;5377592;26;20451;-84
2024/04/17 05:47:09;;;;;;;2.80;1.00;;;7.10;99.90;;;;;;5350313;26;20078;-84
2024/04/17 05:49:35;;;;;;;4.87;0.97;;;7.20;99.90;;;;;;5381334;26;20000;-84
2024/04/17 05:52:00;;;;;;;4.67;0.83;;;7.20;99.90;;;;;;5350358;26;20471;-84
2024/04/17 05:54:26;;;;;;;3.40;0.60;;;7.20;99.90;;;;;;5350529;26;20000;-84
2024/04/17 05:56:51;;;;;;;1.70;0.60;;;7.20;99.90;;;;;;5381565;26;20015;-84
2024/04/17 05:59:17;;;;;;;2.33;0.70;;;7.20;99.90;;;;;;5350762;26;20079;-84
2024/04/17 06:01:43;;;;;;;3.63;0.80;;;7.30;99.90;;;;;;5345538;26;20012;-84
2024/04/17 06:04:08;;;;;;;4.63;0.80;;;7.30;99.90;;;;;;5350451;26;20000;-83
2024/04/17 06:06:34;;;;;;;3.27;0.70;;;7.30;99.90;;;;;;5381524;26;20509;-83
2024/04/17 06:09:00;;;;;;;2.43;0.60;;;7.30;99.90;;;;;;5380379;26;20050;-83
2024/04/17 06:11:26;;;;;;;2.03;0.70;;;7.40;99.90;;;;;;5366889;26;20485;-83
2024/04/17 06:13:52;;;;;;;4.00;0.60;;;7.40;99.90;;;;;;5351568;26;20012;-83
2024/04/17 06:16:18;;;;;;;2.30;0.60;;;7.40;99.90;;;;;;5352852;26;20114;-83
2024/04/17 06:18:43;;;;;;;3.77;0.90;;;7.50;99.90;;;;;;5371318;26;20007;-82
2024/04/17 06:21:09;;;;;;;3.07;0.90;;;7.50;99.90;;;;;;5359432;26;20000;-83
2024/04/17 06:23:34;;;;;;;2.93;0.77;;;7.50;99.90;;;;;;5330275;26;20555;-82
2024/04/17 06:26:00;;;;;;;2.20;0.60;;;7.50;99.90;;;;;;5363818;26;20074;-83
2024/04/17 06:28:26;;;;;;;6.20;0.73;;;7.40;99.90;;;;;;5336521;26;20508;-84
2024/04/17 06:30:51;;;;;;;1.10;0.50;;;7.40;99.90;;;;;;5345354;26;20027;-84
2024/04/17 06:33:17;;;;;;;3.87;0.80;;;7.40;99.90;;;;;;5361880;26;20084;-83
2024/04/17 06:35:42;;;;;;;2.23;0.77;;;7.50;99.90;;;;;;5319032;26;20000;-83
2024/04/17 06:38:08;;;;;;;4.10;0.80;;;7.30;99.90;;;;;;5318943;26;20326;-82
2024/04/17 06:40:34;;;;;;;2.40;0.77;;;7.30;99.90;;;;;;5319210;26;20020;-82
2024/04/17 06:43:00;;;;;;;4.83;0.70;;;7.30;99.90;;;;;;5349745;26;20003;-81
2024/04/17 06:45:26;;;;;;;3.50;0.83;;;7.20;99.90;;;;;;5318588;26;20321;-81
2024/04/17 06:47:52;;;;;;;3.77;0.90;;;7.30;99.90;;;;;;5349204;26;20414;-81
2024/04/17 06:50:17;;;;;;;2.67;1.00;;;7.30;99.90;;;;;;5349403;26;20112;-80
2024/04/17 06:52:43;;;;;;;3.40;0.80;;;7.40;99.90;;;;;;5318625;26;20007;-80
2024/04/17 06:55:09;;;;;;;2.90;0.70;;;7.20;99.90;;;;;;5358626;26;20376;-80
2024/04/17 06:57:34;;;;;;;2.50;0.70;;;7.40;99.90;;;;;;5353240;26;20037;-81
2024/04/17 07:00:00;;;;;;;2.60;0.90;;;7.50;99.90;;;;;;5383944;26;19996;-81
2024/04/17 07:02:25;;;;;;;4.37;0.70;;;7.50;99.90;;;;;;5384028;26;20398;-81
2024/04/17 07:04:51;;;;;;;3.50;0.97;;;7.60;99.90;;;;;;5384164;26;20065;-81
2024/04/17 07:07:17;;;;;;;3.37;1.07;;;7.50;99.90;;;;;;5384250;26;20007;-81
2024/04/17 07:09:42;;;;;;;2.97;0.90;;;7.70;99.90;;;;;;5352879;26;20000;-81
2024/04/17 07:12:09;;;;;;;1.73;0.63;;;7.70;99.90;;;;;;5383703;26;20474;-81
2024/04/17 07:14:34;;;;;;;5.27;1.07;;;7.70;99.90;;;;;;5384201;26;20040;-82
2024/04/17 07:17:00;;;;;;;5.43;1.07;;;7.70;99.90;;;;;;5353073;26;20444;-82
2024/04/17 07:19:25;;;;;;;5.80;1.13;;;7.70;99.90;;;;;;5353119;26;20008;-82
2024/04/17 07:21:51;;;;;;;4.73;1.10;;;7.80;99.90;;;;;;5353553;26;19997;-82
2024/04/17 07:24:18;;;;;;;6.27;0.97;;;7.90;99.90;;;;;;5384433;26;19997;-85
2024/04/17 07:26:44;;;;;;;4.00;1.00;;;7.90;99.90;;;;;;5383871;26;20040;-83
2024/04/17 07:29:10;;;;;;;7.57;1.10;;;7.90;99.90;;;;;;5329305;26;20000;-84
2024/04/17 07:31:36;;;;;;;7.90;1.30;;;7.90;99.90;;;;;;5345684;26;20011;-83
2024/04/17 07:34:01;;;;;;;8.07;1.17;;;7.90;99.90;;;;;;5375074;26;20073;-80
2024/04/17 07:36:27;;;;;;;5.73;1.10;;;7.90;99.90;;;;;;5361940;26;20015;-80
2024/04/17 07:38:52;;;;;;;3.67;0.93;;;7.90;99.90;;;;;;5318167;26;20020;-80
2024/04/17 07:41:18;;;;;;;7.43;1.60;;;8.00;99.90;;;;;;5322419;26;19997;-81
2024/04/17 07:43:44;;;;;;;7.17;0.90;;;8.00;99.90;;;;;;5378376;26;20001;-81
2024/04/17 07:46:09;;;;;;;7.70;1.20;;;8.10;99.90;;;;;;5354912;26;20470;-81
2024/04/17 07:48:35;;;;;;;3.60;0.83;;;8.20;99.90;;;;;;5356100;26;20050;-81
2024/04/17 07:51:02;;;;;;;10.07;1.07;;;8.20;99.90;;;;;;5385337;26;20004;-80
2024/04/17 07:53:28;;;;;;;8.37;1.10;;;8.30;99.90;;;;;;5347314;26;20016;-80
2024/04/17 07:55:53;;;;;;;6.93;1.10;;;8.40;99.90;;;;;;5348789;26;20453;-80
2024/04/17 07:58:19;;;;;;;7.47;0.97;;;8.60;99.90;;;;;;5350333;26;20000;-82
2024/04/17 08:00:45;;;;;;;7.93;0.80;;;8.70;99.90;;;;;;5347109;26;20000;-82
2024/04/17 08:03:11;;;;;;;11.10;0.97;;;8.80;99.90;;;;;;5348789;26;20404;-83
2024/04/17 08:05:37;;;;;;;3.37;0.63;;;8.90;99.90;;;;;;5349049;26;20005;-82
2024/04/17 08:08:04;;;;;;;5.97;1.23;;;8.90;99.90;;;;;;5346339;26;20001;-83
2024/04/17 08:10:30;;;;;;;8.30;1.03;;;9.00;99.90;;;;;;5348600;26;20081;-84
2024/04/17 08:13:11;;;;;;;3.60;0.97;;;9.00;99.90;;;;;;5348516;26;20012;-83
2024/04/17 08:15:40;;;;;;;6.03;0.97;;;9.10;99.90;;;;;;5348845;26;20001;-84
2024/04/17 08:18:06;;;;;;;9.67;1.23;;;9.30;99.90;;;;;;5348054;26;20083;-85
2024/04/17 08:20:32;;;;;;;6.83;1.07;;;9.50;99.90;;;;;;5346508;26;20008;-83
2024/04/17 08:22:57;;;;;;;3.37;0.40;;;9.70;99.90;;;;;;5346167;26;20003;-83
2024/04/17 08:25:23;;;;;;;11.63;1.60;;;9.80;99.90;;;;;;5346318;26;19997;-83
2024/04/17 08:27:48;;;;;;;5.27;0.50;;;9.90;99.90;;;;;;5346679;26;20016;-81
2024/04/17 08:30:14;;;;;;;5.83;0.70;;;9.90;99.70;;;;;;5346674;26;20001;-81
2024/04/17 08:32:43;;;;;;;8.10;0.80;;;9.90;97.30;;;;;;5347734;26;20461;-81
2024/04/17 08:35:09;;;;;;;6.90;1.00;;;9.90;96.00;;;;;;5345502;26;19997;-83
2024/04/17 08:37:37;;;;;;;8.20;0.97;;;9.90;95.40;;;;;;5347309;26;19997;-81
2024/04/17 08:40:04;;;;;;;5.47;0.90;;;9.90;94.10;;;;;;5346528;26;19997;-83
2024/04/17 08:42:33;;;;;;;5.45;0.60;;;9.90;93.70;;;;;;5374669;26;20421;-81
2024/04/17 08:45:09;;;;;;;7.88;0.65;;;10.00;93.80;;;;;;5347743;26;19997;-81
2024/04/17 08:47:37;;;;;;;6.17;0.80;;;10.00;93.10;;;;;;5346410;26;20052;-85
2024/04/17 08:50:04;;;;;;;8.20;1.00;;;10.00;91.40;;;;;;5348041;26;20001;-84
2024/04/17 08:52:32;;;;;;;6.23;0.73;;;9.90;90.50;;;;;;5365960;26;20085;-82
2024/04/17 08:54:58;;;;;;;4.00;0.93;;;9.90;90.80;;;;;;5381156;26;20015;-81
2024/04/17 08:57:24;;;;;;;5.13;0.70;;;9.80;90.70;;;;;;5352032;26;20007;-81
2024/04/17 08:59:50;;;;;;;6.13;0.83;;;9.70;90.60;;;;;;5383170;26;20000;-80
2024/04/17 09:02:16;;;;;;;7.03;0.83;;;9.80;90.90;;;;;;5351734;26;20492;-83
2024/04/17 09:04:46;;;;;;;6.23;0.80;;;9.80;90.80;;;;;;5352562;26;19997;-83
2024/04/17 09:07:12;;;;;;;9.73;0.60;;;9.90;91.00;;;;;;5382536;26;20054;-85
2024/04/17 09:09:39;;;;;;;9.32;0.75;;;10.10;91.20;;;;;;5351335;26;20015;-82
2024/04/17 09:12:06;;;;;;;6.37;0.90;;;10.20;91.60;;;;;;5382533;26;20014;-82
2024/04/17 09:14:32;;;;;;;4.53;0.50;;;10.40;91.30;;;;;;5383228;26;20149;-83
2024/04/17 09:16:57;;;;;;;3.55;0.47;;;10.50;91.10;;;;;;5382699;26;20459;-83
2024/04/17 09:19:23;;;;;;;2.78;0.50;;;10.70;91.30;;;;;;5352467;26;20003;-82
2024/04/17 09:21:51;;;;;;;5.50;0.50;;;10.80;91.40;;;;;;5384496;26;20012;-83
2024/04/17 09:24:17;;;;;;;8.35;0.55;;;11.10;91.60;;;;;;5355337;26;20020;-82
2024/04/17 09:26:43;;;;;;;5.53;0.70;;;11.30;91.50;;;;;;5387973;26;20000;-82
2024/04/17 09:29:08;;;;;;;5.20;0.70;;;11.40;91.50;;;;;;5353895;26;19996;-83
2024/04/17 09:31:34;;;;;;;3.55;0.50;;;11.50;91.50;;;;;;5386589;26;20077;-82
2024/04/17 09:34:00;;;;;;;6.82;0.68;;;11.60;91.40;;;;;;5351658;26;20022;-83
2024/04/17 09:36:27;;;;;;;6.80;0.73;;;11.50;91.10;;;;;;5352051;26;20015;-83
2024/04/17 09:38:56;;;;;;;3.35;0.60;;;11.50;90.30;;;;;;5382918;26;20004;-81
2024/04/17 09:41:22;;;;;;;5.28;0.77;;;11.40;89.40;;;;;;5351201;26;20000;-82
2024/04/17 09:43:51;;;;;;;5.85;0.52;;;11.30;86.80;;;;;;5351096;26;19996;-83
2024/04/17 09:46:19;;;;;;;5.22;0.68;;;11.10;86.60;;;;;;5351370;26;20000;-83
2024/04/17 09:48:49;;;;;;;4.38;0.80;;;11.00;84.20;;;;;;5381873;26;20006;-84
2024/04/17 09:51:20;;;;;;;8.60;0.70;;;10.70;83.50;;;;;;5380557;26;20065;-84
2024/04/17 09:54:09;;;;;;;6.63;0.97;;;10.30;83.90;;;;;;5350889;26;19996;-82
2024/04/17 09:56:36;;;;;;;5.37;0.60;;;9.90;85.60;;;;;;5379420;26;20008;-78
2024/04/17 09:59:03;;;;;;;3.30;0.53;;;9.50;87.50;;;;;;5381656;26;20004;-84
2024/04/17 10:01:29;;;;;;;5.73;0.87;;;9.10;89.60;;;;;;5380401;26;20001;-83
2024/04/17 10:03:55;;;;;;;3.47;0.50;;;8.80;90.60;;;;;;5381919;26;20015;-83
2024/04/17 10:06:23;;;;;;;4.23;0.70;;;8.50;91.60;;;;;;5381008;26;20047;-83
2024/04/17 10:08:51;;;;;;;3.43;0.80;;;8.30;92.00;;;;;;5350088;26;20019;-83
2024/04/17 10:11:17;;;;;;;2.37;0.40;;;8.20;92.30;;;;;;5351598;26;20055;-86
2024/04/17 10:13:48;;;;;;;3.50;0.80;;;8.20;92.60;;;;;;5382443;26;20008;-85
2024/04/17 10:16:14;;;;;;;4.27;0.60;;;8.20;93.10;;;;;;5350592;26;20463;-87
2024/04/17 10:18:40;;;;;;;4.33;0.60;;;8.30;93.40;;;;;;5383742;26;20000;-85
2024/04/17 10:21:16;;;;;;;3.30;0.50;;;8.40;93.80;;;;;;5382246;26;20400;-85
2024/04/17 10:23:41;;;;;;;2.63;0.60;;;8.60;94.20;;;;;;5381964;26;20081;-85
2024/04/17 10:26:11;;;;;;;4.37;0.50;;;8.70;94.50;;;;;;5350824;26;20004;-84
2024/04/17 10:28:36;;;;;;;5.90;0.57;;;8.80;94.90;;;;;;5351430;26;20473;-86
2024/04/17 10:31:03;;;;;;;3.30;0.50;;;9.00;95.20;;;;;;5382052;26;20008;-85
2024/04/17 10:33:34;;;;;;;4.00;0.40;;;9.30;95.80;;;;;;5382330;26;20012;-85
2024/04/17 10:36:03;;;;;;;3.93;0.50;;;9.60;96.10;;;;;;5352913;26;20031;-85
2024/04/17 10:38:32;;;;;;;0.90;0.25;;;9.90;96.40;;;;;;5381517;26;20001;-83
2024/04/17 10:41:00;;;;;;;0.90;0.30;;;10.30;96.70;;;;;;5381190;26;20023;-85
2024/04/17 10:43:28;;;;;;;2.17;0.43;;;10.80;97.10;;;;;;5381544;26;20484;-86
2024/04/17 10:45:57;;;;;;;3.22;0.30;;;11.40;97.90;;;;;;5381012;26;20053;-84
2024/04/17 10:48:24;;;;;;;2.20;0.32;;;12.00;97.60;;;;;;5381236;26;19996;-77
2024/04/17 10:50:50;;;;;;;1.55;0.20;;;12.60;97.80;;;;;;5349852;26;20031;-87
2024/04/17 10:53:17;;;;;;;0.77;0.17;;;13.20;98.00;;;;;;5349951;26;20000;-87
2024/04/17 10:55:43;;;;;;;1.45;0.25;;;13.80;97.80;;;;;;5349920;26;20417;-84
2024/04/17 10:58:12;;;;;;;0.80;0.25;;;14.60;97.20;;;;;;5349680;26;19997;-85
2024/04/17 11:00:37;;;;;;;0.63;0.20;;;15.30;97.20;;;;;;5350400;26;20032;-84
2024/04/17 11:03:03;;;;;;;1.02;0.30;;;16.00;97.00;;;;;;5384283;26;20459;-85
2024/04/17 11:05:30;;;;;;;1.80;0.20;;;16.60;96.10;;;;;;5352944;26;20000;-85
2024/04/17 11:07:56;;;;;;;1.40;0.20;;;17.00;94.90;;;;;;5383795;26;20032;-84
2024/04/17 11:10:22;;;;;;;1.02;0.32;;;17.40;93.20;;;;;;5353358;26;20044;-80
2024/04/17 11:12:48;;;;;;;1.02;0.20;;;17.60;91.70;;;;;;5353078;26;20082;-80
2024/04/17 11:15:14;;;;;;;1.17;0.20;;;17.80;90.20;;;;;;5384298;26;20012;-80
2024/04/17 11:17:40;;;;;;;2.33;0.40;;;18.20;88.70;;;;;;5353263;26;20004;-80
2024/04/17 11:20:08;;;;;;;1.55;0.30;;;18.60;86.50;;;;;;5383761;26;20000;-80
2024/04/17 11:22:37;;;;;;;1.05;0.20;;;19.00;84.70;;;;;;5384165;26;20014;-81
2024/04/17 11:25:12;;;;;;;1.92;0.20;;;19.40;83.30;;;;;;5384048;26;20011;-81
2024/04/17 11:27:37;;;;;;;1.52;0.20;;;20.00;81.30;;;;;;5384565;26;20000;-81
2024/04/17 11:30:14;;;;;;;3.88;0.40;;;20.60;79.40;;;;;;5383461;26;20004;-81
2024/04/17 11:32:40;;;;;;;0.93;0.30;;;21.20;76.90;;;;;;5352980;26;20445;-81
2024/04/17 11:35:14;;;;;;;2.10;0.30;;;21.80;75.10;;;;;;5352595;26;20016;-81
2024/04/17 11:37:41;;;;;;;1.20;0.30;;;22.30;71.30;;;;;;5352847;26;20000;-82
2024/04/17 11:40:08;;;;;;;1.17;0.30;;;22.80;69.00;;;;;;5352370;26;20073;-82
2024/04/17 11:42:36;;;;;;;1.67;0.20;;;23.20;65.80;;;;;;5383641;26;20000;-81
2024/04/17 11:45:05;;;;;;;0.68;0.20;;;23.30;61.70;;;;;;5383985;26;20004;-81
2024/04/17 11:47:31;;;;;;;1.35;0.20;;;23.10;60.50;;;;;;5384513;26;20000;-82
2024/04/17 11:49:56;;;;;;;1.73;0.30;;;22.80;58.40;;;;;;5383794;26;20000;-81
2024/04/17 11:52:22;;;;;;;1.40;0.20;;;22.20;56.30;;;;;;5383204;26;20015;-83
2024/04/17 11:54:48;;;;;;;1.73;0.20;;;21.60;56.60;;;;;;5352547;26;20344;-81
2024/04/17 11:57:14;;;;;;;1.42;0.30;;;21.10;55.20;;;;;;5383761;26;20000;-81
2024/04/17 11:59:39;;;;;;;2.08;0.30;;;20.50;55.60;;;;;;5352690;26;20073;-81
2024/04/17 12:02:05;;;;;;;1.02;0.40;;;19.80;55.00;;;;;;5352363;26;20000;-81
2024/04/17 12:04:31;;;;;;;2.88;0.45;;;19.20;55.40;;;;;;5383677;26;20423;-85
2024/04/17 12:06:58;;;;;;;1.52;0.30;;;18.40;54.10;;;;;;5353184;26;20035;-83
2024/04/17 12:09:23;;;;;;;1.55;0.20;;;17.20;54.80;;;;;;5352465;26;20001;-86
2024/04/17 12:11:49;;;;;;;1.38;0.20;;;15.90;57.60;;;;;;5383380;26;20013;-88
2024/04/17 12:14:15;;;;;;;2.47;0.20;;;14.60;58.80;;;;;;5353082;26;20074;-84
2024/04/17 12:16:40;;;;;;;0.95;0.20;;;13.30;62.20;;;;;;5383393;26;20004;-83
2024/04/17 12:19:06;;;;;;;0.70;0.20;;;12.30;65.30;;;;;;5382840;26;20000;-84
2024/04/17 12:21:32;;;;;;;0.73;0.20;;;11.40;67.80;;;;;;5383150;26;20004;-86
2024/04/17 12:24:00;;;;;;;1.90;0.20;;;10.70;70.80;;;;;;5383281;26;20012;-85
2024/04/17 12:29:10;;;;;;;;;;;9.30;75.20;;;;;;5380083;26;20086;-83
2024/04/17 12:31:35;;;;;;;3.57;0.50;;;8.90;79.10;;;;;;5383445;26;19934;-83
2024/04/17 12:34:01;;;;;;;0.27;0.20;;;8.50;81.10;;;;;;5352227;26;20020;-84
2024/04/17 12:36:27;;;;;;;1.27;0.40;;;8.10;83.50;;;;;;5352445;26;19996;-85
2024/04/17 12:38:52;;;;;;;0.60;0.30;;;7.80;85.90;;;;;;5351794;26;20008;-84
2024/04/17 12:41:18;;;;;;;3.50;0.50;;;7.40;87.40;;;;;;5377223;26;20463;-81
2024/04/17 12:43:44;;;;;;;2.00;0.50;;;7.40;90.00;;;;;;5377601;26;20463;-85
2024/04/17 12:46:10;;;;;;;0.90;0.40;;;7.00;91.20;;;;;;5376902;26;20033;-83
2024/04/17 12:48:36;;;;;;;3.70;0.80;;;6.80;92.20;;;;;;5345056;26;19996;-84
2024/04/17 12:51:02;;;;;;;1.10;0.50;;;6.70;92.90;;;;;;5382456;26;20000;-84
2024/04/17 12:53:28;;;;;;;2.53;0.50;;;6.60;94.20;;;;;;5351240;26;20091;-84